Time;durP1;ratioP1;P1;durP2;ratioP2;P2;SDS_P1;SDS_P2;PMS_P1;PMS_P2;Temp;Humidity;BMP_temperature;BMP_pressure;BME280_temperature;BME280_humidity;BME280_pressure;Samples;Min_cycle;Max_cycle;Signal;HPM_P1;HPM_P2
2022/06/17 00:01:52;;;;;;;26.83;16.00;;;;;;;22.23;42.86;99783.75;5014800;28;20057;-85
2022/06/17 00:04:18;;;;;;;13.23;7.47;;;;;;;22.75;42.99;99864.13;5014759;28;20018;-85
2022/06/17 00:06:48;;;;;;;8.90;5.55;;;;;;;22.69;43.04;99863.25;5014637;28;20402;-85
2022/06/17 00:09:16;;;;;;;70.20;46.85;;;;;;;22.44;42.97;99838.69;5014717;28;20563;-85
2022/06/17 00:11:42;;;;;;;42.03;27.92;;;;;;;22.69;42.85;99867.81;5014166;28;20101;-85
2022/06/17 00:14:17;;;;;;;40.83;28.63;;;;;;;22.67;43.14;99864.56;5014188;28;20125;-85
2022/06/17 00:16:43;;;;;;;76.80;51.00;;;;;;;22.05;43.16;99784.88;5013064;28;20462;-85
2022/06/17 00:19:09;;;;;;;52.03;32.83;;;;;;;22.65;43.05;99853.22;5014344;28;20103;-85
2022/06/17 00:21:38;;;;;;;50.50;35.45;;;;;;;21.95;43.38;99776.63;5014472;28;20026;-85
2022/06/17 00:24:31;;;;;;;43.42;30.65;;;;;;;22.41;43.78;99863.41;5012974;28;20384;-85
2022/06/17 00:26:56;;;;;;;28.63;18.98;;;;;;;22.09;43.85;99829.03;5010882;28;20036;-85
2022/06/17 00:29:25;;;;;;;11.90;8.27;;;;;;;22.12;44.23;99865.38;5014111;28;20018;-85
2022/06/17 00:31:51;;;;;;;6.72;3.90;;;;;;;21.94;44.41;99834.13;5014260;28;20033;-85
2022/06/17 00:34:17;;;;;;;10.27;7.28;;;;;;;21.93;44.53;99831.69;5014120;28;20030;-85
2022/06/17 00:36:44;;;;;;;5.80;4.30;;;;;;;21.33;44.56;99760.56;5012802;28;20478;-85
2022/06/17 00:39:20;;;;;;;7.60;4.43;;;;;;;21.71;44.82;99815.50;5012758;28;20038;-85
2022/06/17 00:41:48;;;;;;;4.97;3.65;;;;;;;21.87;44.97;99852.31;5013697;28;20024;-85
2022/06/17 00:44:34;;;;;;;4.75;2.70;;;;;;;21.83;45.23;99854.66;5013416;28;20116;-85
2022/06/17 00:47:02;;;;;;;13.90;9.85;;;;;;;21.76;45.31;99845.13;5029111;28;20076;-85
2022/06/17 00:49:52;;;;;;;15.50;11.93;;;;;;;21.51;45.60;99819.44;5013512;28;20034;-85
2022/06/17 00:52:24;;;;;;;10.13;6.35;;;;;;;21.05;45.59;99764.06;5029015;28;20022;-85
2022/06/17 00:55:32;;;;;;;7.07;5.07;;;;;;;21.38;45.57;99819.75;5012101;28;20482;-85
2022/06/17 00:58:00;;;;;;;6.38;3.80;;;;;;;21.73;45.52;99846.44;5013374;28;20026;-85
2022/06/17 01:00:27;;;;;;;5.30;3.20;;;;;;;21.81;45.30;99834.47;5012101;28;20509;-86
2022/06/17 01:02:58;;;;;;;7.30;4.78;;;;;;;21.77;45.42;99842.19;5012064;28;20026;-85
2022/06/17 01:05:31;;;;;;;7.20;3.88;;;;;;;21.51;45.61;99815.94;5013506;28;20105;-85
2022/06/17 01:08:12;;;;;;;9.10;3.60;;;;;;;21.70;45.72;99838.03;5013409;28;20037;-85
2022/06/17 01:10:41;;;;;;;5.68;2.22;;;;;;;21.65;45.83;99846.03;5011899;28;20025;-85
2022/06/17 01:13:08;;;;;;;3.40;2.30;;;;;;;21.20;45.79;99785.00;5028347;28;20033;-85
2022/06/17 01:15:35;;;;;;;4.65;2.42;;;;;;;21.41;45.87;99807.69;5028344;28;20026;-85
2022/06/17 01:18:02;;;;;;;2.50;2.10;;;;;;;21.56;45.99;99827.63;5013214;28;20025;-86
2022/06/17 01:20:30;;;;;;;5.63;2.45;;;;;;;21.51;46.04;99821.31;5012120;28;20403;-85
2022/06/17 01:22:59;;;;;;;6.93;5.70;;;;;;;21.50;46.22;99828.56;5013218;28;20422;-85
2022/06/17 01:25:32;;;;;;;6.85;4.47;;;;;;;21.47;46.25;99831.72;5013314;28;20513;-85
2022/06/17 01:28:04;;;;;;;4.72;3.17;;;;;;;21.12;46.43;99791.59;5011760;28;20117;-85
2022/06/17 01:30:43;;;;;;;5.68;2.65;;;;;;;21.39;46.39;99836.69;5011844;28;20025;-85
2022/06/17 01:33:22;;;;;;;6.10;2.92;;;;;;;20.45;46.50;99673.31;5012006;28;20138;-85
2022/06/17 01:35:56;;;;;;;5.25;3.60;;;;;;;21.23;46.81;99808.72;5013065;28;20025;-85
2022/06/17 01:38:23;;;;;;;4.47;4.00;;;;;;;20.86;46.61;99759.97;5027310;28;20033;-85
2022/06/17 01:40:52;;;;;;;5.80;3.40;;;;;;;21.35;46.60;99798.75;5028327;28;20026;-85
2022/06/17 01:43:21;;;;;;;6.20;2.70;;;;;;;21.15;46.54;99763.44;5011763;28;20109;-84
2022/06/17 01:45:54;;;;;;;5.32;2.42;;;;;;;21.45;46.39;99803.47;5013027;28;20041;-84
2022/06/17 01:48:23;;;;;;;4.50;2.80;;;;;;;21.46;46.59;99805.09;5013379;28;20434;-85
2022/06/17 01:50:51;;;;;;;5.40;2.53;;;;;;;20.98;46.46;99725.81;5013253;28;20026;-85
2022/06/17 01:53:20;;;;;;;4.22;2.40;;;;;;;20.80;46.73;99732.19;5013024;28;20100;-85
2022/06/17 01:55:54;;;;;;;4.50;2.88;;;;;;;21.18;47.07;99812.09;5012982;28;20049;-85
2022/06/17 01:58:46;;;;;;;7.47;2.60;;;;;;;20.53;47.44;99731.94;5011864;28;20022;-85
2022/06/17 02:01:12;;;;;;;3.92;2.90;;;;;;;20.49;47.63;99748.75;5012810;28;20018;-85
2022/06/17 02:03:51;;;;;;;3.58;2.92;;;;;;;20.62;47.79;99748.47;5012510;28;20115;-85
2022/06/17 02:06:53;;;;;;;4.28;3.13;;;;;;;20.75;48.19;99779.56;5012110;28;20101;-85
2022/06/17 02:09:18;;;;;;;4.82;2.95;;;;;;;19.86;47.81;99635.06;4973985;28;20026;-85
2022/06/17 02:11:45;;;;;;;5.93;2.80;;;;;;;20.69;47.97;99792.06;5002614;28;20418;-85
2022/06/17 02:14:11;;;;;;;3.47;2.95;;;;;;;20.59;48.04;99781.13;5012068;28;20032;-84
2022/06/17 02:16:41;;;;;;;3.47;3.13;;;;;;;20.70;48.08;99787.53;5010992;28;20022;-85
2022/06/17 02:19:07;;;;;;;6.03;3.58;;;;;;;20.15;48.20;99716.38;5010935;28;20080;-85
2022/06/17 02:21:50;;;;;;;4.97;3.00;;;;;;;19.95;48.59;99705.19;5012158;28;20018;-85
2022/06/17 02:24:17;;;;;;;5.80;3.45;;;;;;;20.47;48.63;99797.25;5027247;28;20049;-85
2022/06/17 02:26:44;;;;;;;5.35;3.05;;;;;;;20.29;48.86;99779.44;5027186;28;20022;-85
2022/06/17 02:29:12;;;;;;;3.97;3.35;;;;;;;20.16;49.11;99787.72;5011988;28;20030;-85
2022/06/17 02:31:40;;;;;;;6.07;3.10;;;;;;;20.34;49.22;99829.66;5011804;28;20060;-85
2022/06/17 02:34:07;;;;;;;4.22;3.45;;;;;;;19.81;49.64;99757.41;5011978;28;20080;-85
2022/06/17 02:36:34;;;;;;;5.35;3.20;;;;;;;20.18;50.17;99820.47;5011349;28;20081;-85
2022/06/17 02:39:01;;;;;;;5.53;3.70;;;;;;;19.94;50.10;99789.34;5010683;28;20495;-85
2022/06/17 02:41:28;;;;;;;3.30;3.00;;;;;;;19.55;50.40;99721.19;5012040;28;20034;-85
2022/06/17 02:44:03;;;;;;;6.25;3.60;;;;;;;19.50;50.41;99713.81;5027008;28;20057;-85
2022/06/17 02:46:34;;;;;;;7.93;3.33;;;;;;;19.65;50.26;99724.91;5010888;28;20482;-85
2022/06/17 02:49:02;;;;;;;6.72;3.25;;;;;;;20.15;50.47;99796.81;5010466;28;20026;-85
2022/06/17 02:51:32;;;;;;;4.47;3.20;;;;;;;20.24;50.60;99814.19;5010465;28;20083;-86
2022/06/17 02:53:59;;;;;;;6.38;3.25;;;;;;;19.80;50.36;99758.47;5010391;28;20084;-85
2022/06/17 02:56:28;;;;;;;5.13;3.20;;;;;;;19.70;50.56;99740.28;5011598;28;20183;-85
2022/06/17 02:59:10;;;;;;;6.53;3.58;;;;;;;20.20;50.67;99807.66;5011722;28;20101;-85
2022/06/17 03:01:38;;;;;;;4.20;3.28;;;;;;;20.16;50.61;99819.88;5010185;28;20018;-85
2022/06/17 03:04:17;;;;;;;4.78;3.20;;;;;;;20.15;50.67;99812.09;5010099;28;20498;-85
2022/06/17 03:06:45;;;;;;;5.43;3.17;;;;;;;19.46;50.65;99719.84;5011435;28;20104;-85
2022/06/17 03:09:19;;;;;;;6.18;3.45;;;;;;;20.04;50.81;99826.28;5010126;28;20519;-85
2022/06/17 03:11:59;;;;;;;7.80;3.42;;;;;;;19.43;50.82;99723.81;5011176;28;20132;-85
2022/06/17 03:14:29;;;;;;;7.60;3.53;;;;;;;19.66;51.21;99773.94;5011482;28;20029;-85
2022/06/17 03:16:59;;;;;;;5.20;3.83;;;;;;;19.68;51.17;99786.06;5011443;28;20431;-85
2022/06/17 03:19:27;;;;;;;6.93;3.55;;;;;;;19.94;50.98;99810.78;5010227;28;20113;-85
2022/06/17 03:21:53;;;;;;;4.80;3.90;;;;;;;19.99;51.11;99825.09;5010299;28;20018;-85
2022/06/17 03:24:42;;;;;;;8.15;3.75;;;;;;;19.80;51.53;99782.56;5017645;28;20025;-85
2022/06/17 03:27:14;;;;;;;4.78;3.70;;;;;;;20.05;51.08;99814.50;5029785;28;20026;-84
2022/06/17 03:29:44;;;;;;;4.03;3.47;;;;;;;20.14;51.09;99824.66;5029950;28;20029;-85
2022/06/17 03:32:17;;;;;;;6.80;3.20;;;;;;;20.24;50.86;99818.72;5012416;28;20038;-85
2022/06/17 03:34:54;;;;;;;4.20;3.33;;;;;;;20.27;50.96;99816.38;5010082;28;20026;-85
2022/06/17 03:37:28;;;;;;;6.15;3.33;;;;;;;20.31;50.96;99816.72;5011231;28;20100;-85
2022/06/17 03:40:05;;;;;;;4.00;3.45;;;;;;;19.49;50.83;99697.97;5011263;28;20024;-85
2022/06/17 03:42:45;;;;;;;8.85;3.90;;;;;;;19.59;51.06;99715.13;5009806;28;20037;-85
2022/06/17 03:45:22;;;;;;;6.55;3.40;;;;;;;20.34;50.90;99820.81;5026187;28;20030;-85
2022/06/17 03:48:08;;;;;;;5.47;3.63;;;;;;;20.28;51.08;99817.19;5010880;28;20486;-86
2022/06/17 03:50:40;;;;;;;5.93;3.78;;;;;;;20.40;50.78;99820.72;5026290;28;20107;-85
2022/06/17 03:53:26;;;;;;;6.15;3.78;;;;;;;20.18;50.72;99774.09;5010079;28;20022;-85
2022/06/17 03:55:54;;;;;;;5.28;3.42;;;;;;;20.59;50.72;99822.19;5011150;28;20156;-86
2022/06/17 03:58:21;;;;;;;7.80;3.88;;;;;;;20.28;50.32;99767.06;5012772;28;20030;-85
2022/06/17 04:00:57;;;;;;;4.45;3.78;;;;;;;20.31;50.51;99768.47;5019261;28;20052;-85
2022/06/17 04:03:25;;;;;;;7.30;4.07;;;;;;;20.40;50.39;99782.34;5030556;28;20037;-85
2022/06/17 04:06:13;;;;;;;5.63;3.72;;;;;;;20.49;50.37;99778.25;5046720;28;20026;-85
2022/06/17 04:08:56;;;;;;;5.82;3.53;;;;;;;20.86;50.33;99835.94;5018353;28;20491;-85
2022/06/17 04:11:26;;;;;;;7.82;4.03;;;;;;;20.90;49.95;99839.75;5013120;28;20054;-85
2022/06/17 04:13:54;;;;;;;7.32;4.43;;;;;;;20.99;49.82;99836.72;5013135;28;20033;-85
2022/06/17 04:16:42;;;;;;;6.88;3.63;;;;;;;20.99;49.79;99845.56;5014064;28;20030;-85
2022/06/17 04:19:20;;;;;;;7.55;4.30;;;;;;;21.00;49.76;99839.16;5014425;28;20038;-85
2022/06/17 04:21:45;;;;;;;9.05;4.28;;;;;;;20.93;49.88;99847.34;5014344;28;20030;-85
2022/06/17 04:24:15;;;;;;;8.52;3.78;;;;;;;20.17;49.82;99700.88;5013009;28;20026;-86
2022/06/17 04:26:43;;;;;;;6.15;3.72;;;;;;;21.05;49.74;99827.69;5014190;28;20026;-85
2022/06/17 04:29:19;;;;;;;6.53;4.00;;;;;;;19.73;49.50;99621.94;5012895;28;20133;-85
2022/06/17 04:31:49;;;;;;;5.55;3.60;;;;;;;21.16;49.51;99832.19;5014035;28;20092;-85
2022/06/17 04:34:17;;;;;;;9.20;3.67;;;;;;;20.90;49.08;99779.91;5014094;28;20025;-85
2022/06/17 04:36:50;;;;;;;5.40;3.65;;;;;;;21.03;49.01;99787.66;5014086;28;20030;-85
2022/06/17 04:39:33;;;;;;;5.03;3.80;;;;;;;21.30;49.50;99822.81;5013921;28;20022;-85
2022/06/17 04:42:02;;;;;;;7.18;3.47;;;;;;;21.31;49.20;99832.50;5012343;28;20021;-85
2022/06/17 04:44:28;;;;;;;8.68;4.00;;;;;;;21.10;49.38;99804.44;5012458;28;20509;-85
2022/06/17 04:46:59;;;;;;;4.50;4.05;;;;;;;21.25;49.47;99834.28;5012380;28;20113;-85
2022/06/17 04:49:28;;;;;;;6.65;3.78;;;;;;;21.25;49.68;99831.59;5012493;28;20557;-85
2022/06/17 04:51:59;;;;;;;9.30;4.78;;;;;;;20.51;49.87;99711.78;5013592;28;20462;-85
2022/06/17 04:54:27;;;;;;;5.05;3.65;;;;;;;21.12;49.92;99823.81;5013449;28;20049;-85
2022/06/17 04:56:54;;;;;;;3.92;2.85;;;;;;;20.74;49.60;99749.25;5013474;28;20068;-85
2022/06/17 04:59:30;;;;;;;3.72;2.90;;;;;;;21.32;49.60;99830.63;5013713;28;20034;-85
2022/06/17 05:01:57;;;;;;;5.10;3.33;;;;;;;21.21;49.90;99843.84;5012242;28;20022;-85
2022/06/17 05:04:24;;;;;;;5.25;3.47;;;;;;;19.72;49.86;99648.97;5012247;28;20030;-85
2022/06/17 05:06:50;;;;;;;5.00;3.78;;;;;;;21.22;50.15;99848.19;5012367;28;20053;-84
2022/06/17 05:09:31;;;;;;;5.05;3.67;;;;;;;20.83;50.09;99789.97;5012014;28;20053;-85
2022/06/17 05:12:05;;;;;;;5.30;3.47;;;;;;;20.93;50.16;99779.41;5027088;28;20037;-85
2022/06/17 05:14:49;;;;;;;4.93;4.10;;;;;;;21.36;49.88;99835.28;5011822;28;20030;-85
2022/06/17 05:17:15;;;;;;;4.50;3.58;;;;;;;21.08;49.83;99787.75;5012043;28;20121;-85
2022/06/17 05:19:40;;;;;;;6.32;3.45;;;;;;;20.57;49.61;99692.84;5028459;28;20108;-85
2022/06/17 05:22:15;;;;;;;5.65;3.60;;;;;;;21.20;49.36;99793.06;5013346;28;20026;-85
2022/06/17 05:24:42;;;;;;;4.75;3.65;;;;;;;21.11;49.57;99771.16;5013169;28;20025;-85
2022/06/17 05:27:07;;;;;;;5.28;3.80;;;;;;;21.31;49.50;99789.53;5011980;28;20509;-85
2022/06/17 05:29:33;;;;;;;7.75;4.45;;;;;;;21.07;49.50;99731.63;5011825;28;20026;-85
2022/06/17 05:31:58;;;;;;;6.68;3.92;;;;;;;20.89;49.60;99703.94;5012651;28;20026;-86
2022/06/17 05:34:25;;;;;;;5.72;3.88;;;;;;;21.15;49.55;99736.59;5011339;28;20033;-85
2022/06/17 05:36:52;;;;;;;4.72;3.72;;;;;;;21.50;49.64;99790.94;5012709;28;20494;-86
2022/06/17 05:39:17;;;;;;;8.60;4.18;;;;;;;21.47;49.59;99750.31;5012822;28;20075;-85
2022/06/17 05:41:42;;;;;;;6.97;4.30;;;;;;;21.12;49.75;99669.94;5012580;28;20026;-85
2022/06/17 05:44:08;;;;;;;5.53;4.32;;;;;;;21.76;49.63;99780.63;5017554;28;20031;-85
2022/06/17 05:46:33;;;;;;;6.40;4.60;;;;;;;21.62;49.81;99731.78;5030048;28;20391;-85
2022/06/17 05:48:59;;;;;;;9.52;4.20;;;;;;;21.90;49.70;99787.28;5021002;28;20033;-85
2022/06/17 05:51:24;;;;;;;6.72;4.35;;;;;;;21.63;49.85;99743.34;5020789;28;20034;-86
2022/06/17 05:53:50;;;;;;;5.47;4.30;;;;;;;21.71;49.91;99730.31;5022368;28;20095;-86
2022/06/17 05:56:15;;;;;;;6.80;4.25;;;;;;;22.25;49.49;99818.50;5016828;28;20103;-85
2022/06/17 05:58:40;;;;;;;5.60;4.50;;;;;;;21.21;49.43;99644.31;5016241;28;20025;-85
2022/06/17 06:01:06;;;;;;;5.00;4.25;;;;;;;22.07;49.38;99746.97;5030506;28;20024;-85
2022/06/17 06:03:31;;;;;;;7.38;4.63;;;;;;;22.10;49.08;99758.03;5032073;28;20026;-85
2022/06/17 06:05:57;;;;;;;8.50;4.72;;;;;;;22.65;48.79;99800.22;5023965;28;20030;-85
2022/06/17 06:08:23;;;;;;;7.32;4.72;;;;;;;21.78;48.67;99653.00;5012394;28;20018;-85
2022/06/17 06:10:48;;;;;;;6.15;4.53;;;;;;;22.39;48.41;99753.34;5010869;28;20472;-85
2022/06/17 06:13:22;;;;;;;8.25;7.10;;;;;;;22.74;48.21;99789.81;5030208;28;20026;-85
2022/06/17 06:15:51;;;;;;;6.05;5.45;;;;;;;22.90;47.88;99807.81;5031773;28;20562;-85
2022/06/17 06:18:21;;;;;;;5.72;5.05;;;;;;;22.67;47.72;99759.59;5030057;28;20640;-85
2022/06/17 06:20:48;;;;;;;10.73;9.67;;;;;;;22.45;47.50;99730.00;5030642;28;20030;-85
2022/06/17 06:23:14;;;;;;;5.82;5.25;;;;;;;23.07;47.41;99799.66;5021447;28;20105;-85
2022/06/17 06:25:40;;;;;;;6.80;6.07;;;;;;;22.29;47.06;99674.38;5011190;28;20486;-85
2022/06/17 06:28:16;;;;;;;7.28;5.15;;;;;;;23.25;47.43;99803.88;5013452;28;20105;-84
2022/06/17 06:30:41;;;;;;;4.78;4.30;;;;;;;23.05;47.49;99769.47;5030683;28;20018;-85
2022/06/17 06:33:09;;;;;;;7.35;4.70;;;;;;;23.35;47.54;99802.09;5036453;28;20418;-86
2022/06/17 06:35:37;;;;;;;5.43;4.93;;;;;;;23.10;47.31;99759.56;5037298;28;20052;-84
2022/06/17 06:38:04;;;;;;;4.57;4.10;;;;;;;23.18;47.01;99757.47;5040153;28;20421;-87
2022/06/17 06:40:30;;;;;;;9.35;8.45;;;;;;;23.45;46.97;99798.69;5026925;28;20010;-84
2022/06/17 06:42:57;;;;;;;7.93;6.68;;;;;;;23.53;47.00;99792.00;5021052;28;20092;-84
2022/06/17 06:45:35;;;;;;;8.07;4.88;;;;;;;23.33;46.81;99758.44;5017247;28;20105;-85
2022/06/17 06:48:04;;;;;;;5.32;4.82;;;;;;;23.60;46.86;99789.94;5017466;28;20056;-85
2022/06/17 06:50:31;;;;;;;6.18;5.20;;;;;;;23.67;46.45;99785.16;5022345;28;20091;-85
2022/06/17 06:52:57;;;;;;;8.07;4.80;;;;;;;23.70;46.70;99784.63;5010744;28;20022;-85
2022/06/17 06:55:23;;;;;;;4.78;4.30;;;;;;;23.51;46.68;99738.38;5010723;28;20046;-86
2022/06/17 06:57:52;;;;;;;5.63;5.13;;;;;;;23.24;46.81;99697.19;5023379;28;20036;-84
2022/06/17 07:00:25;;;;;;;8.65;6.15;;;;;;;23.74;45.96;99737.22;5010268;28;20161;-84
2022/06/17 07:02:51;;;;;;;11.30;9.38;;;;;;;23.87;45.74;99776.41;5010628;28;20483;-86
2022/06/17 07:05:17;;;;;;;5.20;4.70;;;;;;;23.43;45.55;99698.41;5010957;28;20022;-86
2022/06/17 07:07:43;;;;;;;4.80;4.30;;;;;;;23.27;45.13;99686.72;5020788;28;20025;-84
2022/06/17 07:10:12;;;;;;;6.43;5.82;;;;;;;23.91;45.40;99770.25;5030030;28;20036;-83
2022/06/17 07:12:38;;;;;;;5.63;4.85;;;;;;;23.51;45.74;99694.44;5022863;28;20128;-86
2022/06/17 07:15:04;;;;;;;6.60;4.30;;;;;;;24.09;45.50;99755.53;5016887;28;20033;-86
2022/06/17 07:17:29;;;;;;;7.38;5.60;;;;;;;23.14;45.56;99598.25;5025986;28;20033;-84
2022/06/17 07:19:55;;;;;;;8.10;5.13;;;;;;;23.89;45.42;99726.56;5016666;28;20025;-84
2022/06/17 07:22:22;;;;;;;7.13;4.90;;;;;;;24.09;45.67;99725.84;5031897;28;20462;-85
2022/06/17 07:24:47;;;;;;;10.60;7.45;;;;;;;24.11;45.84;99717.50;5019625;28;20025;-87
2022/06/17 07:27:13;;;;;;;12.02;10.15;;;;;;;24.25;45.84;99724.03;5025691;28;20079;-87
2022/06/17 07:29:38;;;;;;;9.75;8.20;;;;;;;24.46;45.54;99746.53;5011683;28;20026;-86
2022/06/17 07:32:04;;;;;;;8.55;7.70;;;;;;;24.26;45.71;99696.78;5012118;28;20391;-85
2022/06/17 07:34:30;;;;;;;5.97;5.22;;;;;;;24.55;45.21;99735.00;5029617;28;20022;-86
2022/06/17 07:39:55;;;;;;;7.32;5.50;;;;;;;24.12;43.62;99681.34;5015710;28;20036;-84
2022/06/17 07:42:22;;;;;;;6.22;4.90;;;;;;;23.56;43.52;99584.81;5013844;28;20034;-85
2022/06/17 07:44:48;;;;;;;8.73;7.82;;;;;;;24.25;43.33;99661.97;5014714;28;20044;-85
2022/06/17 07:47:16;;;;;;;6.13;5.53;;;;;;;24.85;43.18;99739.69;5027681;28;20029;-85
2022/06/17 07:49:42;;;;;;;6.28;5.60;;;;;;;24.65;42.92;99685.63;5019939;28;20033;-85
2022/06/17 07:52:08;;;;;;;6.32;4.45;;;;;;;25.06;42.36;99728.94;5027257;28;20029;-86
2022/06/17 07:54:34;;;;;;;5.35;4.40;;;;;;;24.94;42.49;99739.97;5026382;28;20040;-85
2022/06/17 07:57:00;;;;;;;6.45;5.85;;;;;;;24.66;42.04;99669.16;5013123;28;20029;-85
2022/06/17 07:59:26;;;;;;;9.98;8.98;;;;;;;24.34;42.41;99609.94;5016456;28;20087;-85
2022/06/17 08:01:51;;;;;;;6.28;5.38;;;;;;;24.57;42.25;99615.97;5016307;28;20029;-85
2022/06/17 08:04:18;;;;;;;6.30;4.22;;;;;;;25.34;41.52;99709.53;5021895;28;20056;-85
2022/06/17 08:06:49;;;;;;;8.63;7.82;;;;;;;24.91;41.92;99624.34;5012411;28;20029;-86
2022/06/17 08:09:20;;;;;;;9.13;8.18;;;;;;;25.60;41.32;99713.00;5026643;28;20572;-85
2022/06/17 08:11:47;;;;;;;8.68;7.78;;;;;;;25.23;39.92;99662.72;5014046;28;20038;-86
2022/06/17 08:14:13;;;;;;;4.85;4.20;;;;;;;25.69;39.20;99735.75;5014485;28;20041;-85
2022/06/17 08:16:39;;;;;;;6.80;5.70;;;;;;;25.37;39.40;99640.59;5016732;28;20523;-85
2022/06/17 08:19:07;;;;;;;6.82;6.03;;;;;;;25.21;38.82;99612.75;5029591;28;20029;-85
2022/06/17 08:21:33;;;;;;;5.60;4.53;;;;;;;25.67;38.55;99656.78;5033229;28;20021;-86
2022/06/17 08:23:58;;;;;;;5.70;4.22;;;;;;;24.30;38.15;99465.84;5031574;28;20037;-86
2022/06/17 08:26:24;;;;;;;14.82;9.98;;;;;;;25.56;37.75;99611.88;5032724;28;20041;-85
2022/06/17 08:28:49;;;;;;;7.82;7.03;;;;;;;25.85;37.55;99653.47;5016071;28;20084;-85
2022/06/17 08:31:14;;;;;;;4.97;4.43;;;;;;;25.87;37.25;99650.50;5031592;28;20091;-87
2022/06/17 08:33:40;;;;;;;6.70;5.47;;;;;;;26.32;37.50;99705.56;5052264;28;20037;-85
2022/06/17 08:36:10;;;;;;;5.22;4.30;;;;;;;26.44;37.07;99701.47;5028648;28;20044;-85
2022/06/17 08:38:41;;;;;;;5.78;4.57;;;;;;;26.09;36.97;99648.28;5033764;28;20034;-85
2022/06/17 08:41:26;;;;;;;6.95;4.25;;;;;;;26.68;36.28;99701.59;5032698;28;20029;-85
2022/06/17 08:44:01;;;;;;;4.13;3.28;;;;;;;26.81;36.06;99702.91;5030692;28;20029;-86
2022/06/17 08:46:44;;;;;;;13.32;11.52;;;;;;;26.94;35.87;99701.47;5021246;28;20036;-86
2022/06/17 08:49:40;;;;;;;8.30;7.45;;;;;;;26.75;35.03;99655.25;5011646;28;20033;-87
2022/06/17 08:52:33;;;;;;;3.75;3.17;;;;;;;27.19;33.70;99707.53;5031357;28;20116;-85
2022/06/17 08:55:31;;;;;;;4.07;2.63;;;;;;;26.95;31.35;99673.28;5050163;28;20144;-84
2022/06/17 08:58:04;;;;;;;5.88;3.35;;;;;;;26.79;33.06;99621.09;5043815;28;20041;-83
2022/06/17 09:00:36;;;;;;;4.03;3.20;;;;;;;27.42;33.06;99692.41;5028151;28;20101;-86
2022/06/17 09:03:07;;;;;;;4.85;2.90;;;;;;;27.58;32.24;99695.81;5012327;28;20030;-87
2022/06/17 09:05:45;;;;;;;3.83;2.85;;;;;;;27.67;31.16;99690.63;5013483;28;20032;-86
2022/06/17 09:08:57;;;;;;;3.75;2.80;;;;;;;27.38;29.52;99639.03;5011965;28;20080;-86
2022/06/17 09:11:38;;;;;;;6.95;2.78;;;;;;;27.94;29.99;99684.63;5011860;28;20026;-86
2022/06/17 09:14:16;;;;;;;4.53;3.85;;;;;;;28.06;29.98;99679.59;5013981;28;20115;-86
2022/06/17 09:16:51;;;;;;;4.60;3.08;;;;;;;28.26;29.76;99678.59;5027141;28;20029;-86
2022/06/17 09:19:25;;;;;;;3.97;3.15;;;;;;;28.53;29.57;99689.63;5031708;28;20036;-86
2022/06/17 09:21:54;;;;;;;3.92;3.00;;;;;;;28.62;28.67;99679.72;5031135;28;20044;-85
2022/06/17 09:24:30;;;;;;;4.18;2.20;;;;;;;28.38;28.19;99622.75;5029468;28;20517;-86
2022/06/17 09:27:06;;;;;;;3.50;2.53;;;;;;;28.46;28.49;99618.56;5012990;28;20030;-85
2022/06/17 09:29:56;;;;;;;3.75;3.15;;;;;;;28.98;27.79;99669.13;5025169;28;20040;-85
2022/06/17 09:32:32;;;;;;;2.80;2.60;;;;;;;28.85;27.18;99603.84;5035773;28;20104;-86
2022/06/17 09:35:08;;;;;;;2.80;2.40;;;;;;;29.10;27.87;99619.75;5035008;28;20112;-86
2022/06/17 09:38:20;;;;;;;2.47;2.28;;;;;;;29.39;27.53;99649.44;5051052;28;20036;-85
2022/06/17 09:41:00;;;;;;;5.10;3.83;;;;;;;29.08;27.91;99564.88;5044324;28;20029;-85
2022/06/17 09:43:36;;;;;;;4.20;3.80;;;;;;;28.55;27.53;99447.56;5024749;28;20533;-85
2022/06/17 09:46:20;;;;;;;3.72;3.35;;;;;;;30.25;26.98;99661.41;5009799;28;20051;-85
2022/06/17 09:49:00;;;;;;;3.53;2.38;;;;;;;30.47;26.62;99668.88;5011151;28;20022;-85
2022/06/17 09:51:41;;;;;;;3.75;2.83;;;;;;;30.68;26.50;99658.34;5012202;28;20125;-83
2022/06/17 09:54:13;;;;;;;4.60;2.55;;;;;;;30.48;26.38;99596.09;5018452;28;20046;-85
2022/06/17 09:56:57;;;;;;;;;;;;;;;31.05;26.36;99653.63;5032411;28;20076;-85
2022/06/17 09:59:36;;;;;;;11.65;9.82;;;;;;;30.53;26.17;99525.94;5031556;28;19920;-85
2022/06/17 10:02:28;;;;;;;5.10;4.18;;;;;;;31.52;25.19;99647.53;5032067;28;20426;-85
2022/06/17 10:04:55;;;;;;;;;;;;;;;31.59;26.49;99647.09;5044185;28;20109;-86
2022/06/17 10:07:39;;;;;;;3.55;3.05;;;;;;;31.64;26.15;99646.94;5051942;28;19908;-85
2022/06/17 10:10:41;;;;;;;2.83;2.50;;;;;;;31.82;25.26;99650.56;5050588;28;20410;-86
2022/06/17 10:13:19;;;;;;;5.22;4.05;;;;;;;31.99;25.52;99647.94;5050534;28;20029;-85
2022/06/17 10:19:20;;;;;;;3.10;2.78;;;;;;;32.23;24.64;99636.56;5044926;28;20048;-84
2022/06/17 10:22:04;;;;;;;4.10;2.58;;;;;;;32.33;24.55;99632.75;5023912;28;20095;-84
2022/06/17 10:24:56;;;;;;;2.85;2.20;;;;;;;32.53;24.40;99632.13;5034920;28;20030;-84
2022/06/17 10:27:30;;;;;;;4.00;2.42;;;;;;;32.63;24.61;99629.06;5040452;28;20025;-84
2022/06/17 10:30:05;;;;;;;4.47;2.67;;;;;;;32.60;23.92;99610.56;5031201;28;20056;-84
2022/06/17 10:32:36;;;;;;;4.35;2.97;;;;;;;31.73;24.17;99450.44;5034588;28;20033;-84
2022/06/17 10:35:04;;;;;;;2.65;2.45;;;;;;;32.99;24.21;99622.47;5046227;28;20546;-85
2022/06/17 10:37:34;;;;;;;6.20;3.33;;;;;;;33.11;24.08;99617.94;5043943;28;20471;-83
2022/06/17 10:40:01;;;;;;;4.53;3.08;;;;;;;33.33;23.97;99659.94;5032609;28;20559;-86
2022/06/17 10:42:27;;;;;;;3.03;2.30;;;;;;;32.89;22.91;99516.94;5049054;28;20111;-85
2022/06/17 10:44:59;;;;;;;4.10;3.00;;;;;;;33.05;22.66;99511.75;5042258;28;20029;-84
2022/06/17 10:47:47;;;;;;;4.07;3.60;;;;;;;33.72;22.55;99590.38;5041797;28;20029;-84
2022/06/17 10:50:23;;;;;;;6.45;3.90;;;;;;;33.80;22.22;99600.47;5031425;28;20111;-86
2022/06/17 10:53:02;;;;;;;5.45;2.80;;;;;;;33.16;21.15;99522.00;5037374;28;20028;-85
2022/06/17 10:55:34;;;;;;;4.55;3.58;;;;;;;33.80;22.03;99600.47;5041384;28;20506;-85
2022/06/17 10:58:25;;;;;;;3.50;2.40;;;;;;;33.77;21.81;99588.25;5030723;28;20025;-85
2022/06/17 11:01:10;;;;;;;4.57;3.65;;;;;;;34.09;22.33;99595.00;5035846;28;20116;-85
2022/06/17 11:03:45;;;;;;;5.93;4.10;;;;;;;33.75;21.53;99493.88;5038687;28;20495;-85
2022/06/17 11:06:16;;;;;;;4.20;2.40;;;;;;;34.54;21.71;99590.84;5031711;28;20022;-84
2022/06/17 11:08:48;;;;;;;3.35;3.05;;;;;;;34.57;21.47;99590.97;5039062;28;20036;-84
2022/06/17 11:14:02;;;;;;;3.83;3.40;;;;;;;34.35;21.74;99539.25;5055531;28;20520;-83
2022/06/17 11:16:34;;;;;;;3.53;2.05;;;;;;;34.74;21.12;99559.84;5037377;28;20108;-84
2022/06/17 11:19:05;;;;;;;4.97;2.67;;;;;;;34.26;21.87;99487.22;5034946;28;20486;-82
2022/06/17 11:21:41;;;;;;;6.10;4.63;;;;;;;35.09;21.45;99582.25;5054912;28;20016;-84
2022/06/17 11:24:07;;;;;;;4.78;4.38;;;;;;;34.81;21.31;99540.88;5055040;28;20422;-84
2022/06/17 11:26:35;;;;;;;5.93;4.65;;;;;;;35.28;20.80;99573.47;5054580;28;20052;-84
2022/06/17 11:29:04;;;;;;;4.35;3.22;;;;;;;35.12;20.74;99565.13;5054816;28;20036;-84
2022/06/17 11:31:33;;;;;;;4.05;2.50;;;;;;;35.01;20.48;99561.22;5054589;28;20029;-84
2022/06/17 11:34:12;;;;;;;4.05;2.40;;;;;;;34.52;21.08;99519.88;5053472;28;20028;-84
2022/06/17 11:37:12;;;;;;;2.70;2.50;;;;;;;34.50;21.30;99524.09;5053275;28;20504;-84
2022/06/17 11:39:38;;;;;;;4.35;2.83;;;;;;;34.86;21.58;99537.16;5053238;28;20071;-84
2022/06/17 11:42:24;;;;;;;3.67;2.70;;;;;;;35.28;20.82;99577.03;5053068;28;20456;-84
2022/06/17 11:44:56;;;;;;;6.50;2.33;;;;;;;34.66;20.99;99453.75;5054230;28;20111;-84
2022/06/17 11:47:25;;;;;;;3.55;2.25;;;;;;;34.99;20.82;99479.22;5054447;28;20040;-84
2022/06/17 11:49:54;;;;;;;3.58;2.70;;;;;;;34.96;20.68;99463.47;5053027;28;20029;-83
2022/06/17 11:52:32;;;;;;;2.58;2.30;;;;;;;34.90;20.08;99477.72;5038698;28;20021;-84
2022/06/17 11:54:59;;;;;;;3.08;2.60;;;;;;;35.79;19.98;99554.75;5034394;28;20135;-84
2022/06/17 11:57:31;;;;;;;3.13;2.83;;;;;;;35.83;20.05;99555.69;5034363;28;20025;-85
2022/06/17 11:59:59;;;;;;;3.75;3.38;;;;;;;35.71;20.55;99531.75;5034259;28;20521;-84
2022/06/17 12:02:26;;;;;;;3.38;3.10;;;;;;;36.09;20.44;99547.84;5034110;28;20033;-84
2022/06/17 12:04:55;;;;;;;3.42;2.35;;;;;;;35.50;20.13;99481.63;5033809;28;20024;-83
2022/06/17 12:08:00;;;;;;;3.47;2.92;;;;;;;36.06;20.33;99550.50;5032621;28;20566;-83